This is the latest recevied weather packets stored in our database for station/object K5VP. If no packets are shown the sender has not sent any weather packets the latest 10 day(s).
| Time | Temp. | Humidity | Pressure | Rain* | Wind** | Luminosity | Snow |
|---|---|---|---|---|---|---|---|
| 1777771440 | 11.11° C | 70% | 1020.7 hPa | 0 mm | - | - | - |
| 1777771048 | 11.11° C | 69% | 1020.6 hPa | 0 mm | - | - | - |
| 1777770664 | 11.67° C | 68% | 1020.6 hPa | 0 mm | - | - | - |
| 1777770290 | 11.67° C | 67% | 1020.5 hPa | 0 mm | - | - | - |
| 1777769912 | 11.67° C | 67% | 1020.5 hPa | 0 mm | - | - | - |
| 1777769542 | 11.67° C | 67% | 1020.4 hPa | 0 mm | - | - | - |
| 1777769156 | 12.22° C | 66% | 1020.3 hPa | 0 mm | - | - | - |
| 1777768784 | 12.22° C | 65% | 1020.3 hPa | 0 mm | - | - | - |
| 1777681598 | 15° C | 45% | 1017.7 hPa | 0 mm | - | - | - |
| 1777681208 | 15° C | 45% | 1017.4 hPa | 0 mm | - | - | - |
| 1777680820 | 15.56° C | 44% | 1017.2 hPa | 0 mm | - | - | - |
| 1777680424 | 15.56° C | 43% | 1017.1 hPa | 0 mm | - | - | - |
| 1777680048 | 15.56° C | 42% | 1017 hPa | 0 mm | - | - | - |
| 1777679653 | 16.11° C | 41% | 1016.9 hPa | 0 mm | - | - | - |
| 1777679277 | 16.11° C | 42% | 1016.7 hPa | 0 mm | - | - | - |
| 1777678888 | 16.11° C | 41% | 1016.7 hPa | 0 mm | - | - | - |
| 1777678500 | 16.11° C | 41% | 1016.7 hPa | 0 mm | - | - | - |
| 1777678122 | 16.11° C | 40% | 1016.5 hPa | 0 mm | - | - | - |
| 1777677749 | 16.67° C | 42% | 1016.6 hPa | 0 mm | - | - | - |
| 1777677364 | 16.67° C | 39% | 1016.5 hPa | 0 mm | - | - | - |
| 1777676974 | 16.67° C | 41% | 1016.5 hPa | 0 mm | - | - | - |
| 1777676597 | 16.67° C | 40% | 1016.4 hPa | 0 mm | - | - | - |
| 1777676206 | 16.67° C | 40% | 1016.3 hPa | 0 mm | - | - | - |
| 1777675818 | 16.67° C | 39% | 1016.1 hPa | 0 mm | - | - | - |
| 1777675448 | 16.67° C | 37% | 1016.1 hPa | 0 mm | - | - | - |
* Rain latest hour (hover to see other rain measurements)
** Current wind speed in m/s (hover to see current wind gust speed)